createdAt,value
2019-01-21T00:01:07.923Z,5.43
2019-01-21T00:05:13.619Z,5.53
2019-01-21T00:09:19.330Z,5.64
2019-01-21T00:13:25.119Z,5.48
2019-01-21T00:17:30.828Z,5.49
2019-01-21T00:21:36.528Z,5.52
2019-01-21T00:25:42.206Z,5.53
2019-01-21T00:29:47.889Z,5.41
2019-01-21T00:33:53.583Z,5.27
2019-01-21T00:37:59.256Z,5.39
2019-01-21T00:42:05.244Z,5.34
2019-01-21T00:46:11.908Z,5.54
2019-01-21T00:50:17.705Z,5.70
2019-01-21T00:54:23.398Z,5.81
2019-01-21T00:58:29.086Z,5.73
2019-01-21T01:02:34.885Z,5.83
2019-01-21T01:06:40.531Z,5.93
2019-01-21T01:10:46.224Z,5.87
2019-01-21T01:14:51.922Z,5.64
2019-01-21T01:18:57.601Z,5.73
2019-01-21T01:23:03.360Z,5.63
2019-01-21T01:27:09.187Z,5.57
2019-01-21T01:31:14.978Z,5.70
2019-01-21T01:35:20.699Z,5.58
2019-01-21T01:39:26.364Z,5.47
2019-01-21T01:43:32.052Z,5.51
2019-01-21T01:47:44.517Z,5.53
2019-01-21T01:51:45.142Z,5.47
2019-01-21T01:55:50.895Z,5.33
2019-01-21T01:59:56.725Z,5.48
2019-01-21T02:04:02.479Z,5.56
2019-01-21T02:08:08.243Z,5.59
2019-01-21T02:12:14.013Z,5.58
2019-01-21T02:16:19.775Z,5.52
2019-01-21T02:20:25.474Z,5.42
2019-01-21T02:24:34.536Z,5.37
2019-01-21T02:29:01.852Z,5.33
2019-01-21T02:33:37.425Z,5.17
2019-01-21T02:38:08.662Z,5.15
2019-01-21T02:42:30.154Z,4.99
2019-01-21T02:47:01.281Z,4.73
2019-01-21T02:51:41.611Z,4.54
2019-01-21T02:56:14.245Z,4.34
2019-01-21T03:00:33.249Z,4.50
2019-01-21T03:05:26.755Z,4.62
2019-01-21T03:09:39.976Z,4.49
2019-01-21T03:13:52.763Z,4.20
2019-01-21T03:18:29.962Z,3.94
2019-01-21T03:23:14.334Z,3.87
2019-01-21T03:27:33.000Z,4.00
2019-01-21T03:32:13.178Z,3.83
2019-01-21T03:36:46.893Z,3.82
2019-01-21T03:40:57.160Z,3.79
2019-01-21T03:45:22.447Z,3.57
2019-01-21T03:50:08.701Z,3.05
2019-01-21T03:54:21.793Z,2.94
2019-01-21T03:58:37.570Z,2.75
2019-01-21T04:02:53.375Z,3.24
2019-01-21T04:07:03.661Z,2.96
2019-01-21T04:11:34.637Z,2.64
2019-01-21T04:15:44.919Z,2.50
2019-01-21T04:20:17.217Z,2.26
2019-01-21T04:25:00.316Z,2.10
2019-01-21T04:29:45.108Z,2.50
2019-01-21T04:34:03.804Z,2.44
2019-01-21T04:38:37.462Z,2.51
2019-01-21T04:42:59.141Z,2.42
2019-01-21T04:47:34.673Z,2.54
2019-01-21T04:52:02.541Z,2.66
2019-01-21T04:56:37.795Z,2.57
2019-01-21T05:01:06.900Z,2.35
2019-01-21T05:05:28.781Z,2.20
2019-01-21T05:10:03.638Z,1.84
2019-01-21T05:14:43.909Z,2.15
2019-01-21T05:19:14.550Z,2.29
2019-01-21T05:23:57.676Z,2.59
2019-01-21T05:28:31.533Z,2.68
2019-01-21T05:33:19.020Z,2.92
2019-01-21T05:37:35.036Z,2.81
2019-01-21T05:42:18.018Z,2.24
2019-01-21T05:46:46.302Z,2.00
2019-01-21T05:51:11.442Z,2.35
2019-01-21T05:55:56.113Z,2.62
2019-01-21T06:00:18.200Z,2.58
2019-01-21T06:04:49.328Z,2.43
2019-01-21T06:09:23.317Z,2.17
2019-01-21T06:14:04.904Z,2.00
2019-01-21T06:18:39.174Z,1.91
2019-01-21T06:23:17.882Z,1.97
2019-01-21T06:27:30.850Z,1.86
2019-01-21T06:31:49.858Z,2.29
2019-01-21T06:36:08.581Z,2.56
2019-01-21T06:40:42.450Z,2.89
2019-01-21T06:45:04.234Z,2.94
2019-01-21T06:49:39.822Z,2.99
2019-01-21T06:54:09.411Z,3.09
2019-01-21T06:58:45.111Z,3.44
2019-01-21T07:03:01.105Z,3.46
2019-01-21T07:07:19.951Z,2.91
2019-01-21T07:11:32.778Z,2.34
2019-01-21T07:15:51.422Z,1.73
2019-01-21T07:20:10.323Z,1.41
2019-01-21T07:24:38.187Z,1.33
2019-01-21T07:28:57.174Z,1.77
2019-01-21T07:33:19.955Z,2.06
2019-01-21T07:37:33.215Z,2.13
2019-01-21T07:41:46.043Z,2.38
2019-01-21T07:46:02.100Z,2.31
2019-01-21T07:50:17.841Z,2.29
2019-01-21T07:54:42.536Z,2.90
2019-01-21T07:59:31.407Z,2.88
2019-01-21T08:04:09.931Z,2.74
2019-01-21T08:08:22.870Z,2.51
2019-01-21T08:12:41.354Z,2.86
2019-01-21T08:17:00.374Z,3.25
2019-01-21T08:21:37.351Z,3.09
2019-01-21T08:26:08.353Z,2.58
2019-01-21T08:30:42.406Z,2.37
2019-01-21T08:34:58.392Z,2.45
2019-01-21T08:39:11.560Z,2.55
2019-01-21T08:43:44.086Z,3.13
2019-01-21T08:48:16.592Z,3.75
2019-01-21T08:52:38.374Z,4.09
2019-01-21T08:57:04.743Z,4.61
2019-01-21T09:01:38.819Z,5.22
2019-01-21T09:06:03.521Z,4.83
2019-01-21T09:10:31.324Z,5.11
2019-01-21T09:15:05.301Z,5.57
2019-01-21T09:19:15.566Z,5.10
2019-01-21T09:23:50.803Z,4.48
2019-01-21T09:28:34.113Z,4.57
2019-01-21T09:32:47.354Z,4.70
2019-01-21T09:37:16.983Z,4.70
2019-01-21T09:42:03.144Z,4.61
2019-01-21T09:46:18.995Z,4.83
2019-01-21T09:50:25.233Z,5.01
2019-01-21T09:54:31.009Z,4.97
2019-01-21T09:58:38.045Z,4.74
2019-01-21T10:07:44.546Z,5.55
2019-01-21T10:12:21.372Z,6.24
2019-01-21T10:16:31.642Z,6.78
2019-01-21T10:21:04.204Z,7.28
2019-01-21T10:25:20.192Z,7.01
2019-01-21T10:29:52.827Z,7.24
2019-01-21T10:34:21.031Z,6.98
2019-01-21T10:38:53.441Z,6.84
2019-01-21T10:43:09.357Z,6.85
2019-01-21T10:47:37.562Z,6.76
2019-01-21T10:52:02.776Z,6.46
2019-01-21T10:56:27.251Z,6.06
2019-01-21T11:00:55.402Z,6.85
2019-01-21T11:05:26.309Z,7.01
2019-01-21T11:09:55.862Z,7.77
2019-01-21T11:14:30.095Z,7.99
2019-01-21T11:18:46.116Z,8.36
2019-01-21T11:23:06.310Z,9.09
2019-01-21T11:27:22.741Z,11.23
2019-01-21T11:31:52.232Z,13.75
2019-01-21T11:36:24.704Z,15.30
2019-01-21T11:40:41.563Z,15.92
2019-01-21T11:44:54.551Z,16.19
2019-01-21T11:49:19.862Z,17.03
2019-01-21T11:53:49.300Z,17.88
2019-01-21T11:58:24.775Z,18.93
2019-01-21T12:02:46.796Z,19.15
2019-01-21T12:07:08.535Z,19.01
2019-01-21T12:11:18.835Z,19.60
2019-01-21T12:15:40.320Z,19.56
2019-01-21T12:20:01.711Z,18.42
2019-01-21T12:24:11.996Z,18.34
2019-01-21T12:28:50.687Z,17.49
2019-01-21T12:33:27.671Z,17.39
2019-01-21T12:37:43.582Z,16.82
2019-01-21T12:42:11.542Z,16.65
2019-01-21T12:46:32.894Z,17.69
2019-01-21T12:51:05.804Z,17.97
2019-01-21T12:55:30.811Z,17.22
2019-01-21T12:59:49.512Z,16.28
2019-01-21T13:04:05.312Z,14.88
2019-01-21T13:08:21.335Z,12.03
2019-01-21T13:13:13.668Z,10.51
2019-01-21T13:17:24.932Z,9.62
2019-01-21T13:22:00.322Z,9.00
2019-01-21T13:26:22.379Z,8.75
2019-01-21T13:30:44.221Z,8.56
2019-01-21T13:35:25.762Z,8.26
2019-01-21T13:39:44.015Z,8.03
2019-01-21T13:44:33.023Z,7.90
2019-01-21T13:48:55.276Z,7.85
2019-01-21T13:53:50.520Z,7.78
2019-01-21T13:58:18.593Z,7.77
2019-01-21T14:02:28.869Z,7.85
2019-01-21T14:06:44.854Z,7.94
2019-01-21T14:11:06.621Z,7.70
2019-01-21T14:15:28.769Z,7.39
2019-01-21T14:19:48.007Z,7.24
2019-01-21T14:24:18.780Z,7.30
2019-01-21T14:28:58.868Z,7.23
2019-01-21T14:33:32.869Z,7.22
2019-01-21T14:38:02.926Z,7.09
2019-01-21T14:42:43.179Z,7.19
2019-01-21T14:47:19.947Z,6.94
2019-01-21T14:52:01.407Z,6.91
2019-01-21T14:56:16.902Z,6.95
2019-01-21T15:00:50.844Z,6.69
2019-01-21T15:05:29.428Z,6.71
2019-01-21T15:09:58.951Z,6.51
2019-01-21T15:14:38.986Z,6.54
2019-01-21T15:19:13.157Z,6.10
2019-01-21T15:23:34.652Z,5.93
2019-01-21T15:28:21.087Z,5.84
2019-01-21T15:32:42.947Z,6.21
2019-01-21T15:37:10.633Z,6.25
2019-01-21T15:41:55.267Z,6.16
2019-01-21T15:46:27.920Z,6.41
2019-01-21T15:50:40.936Z,6.47
2019-01-21T15:55:11.383Z,6.28
2019-01-21T15:59:30.506Z,6.32
2019-01-21T16:03:49.362Z,6.14
2019-01-21T16:07:59.640Z,6.17
2019-01-21T16:12:15.617Z,5.84
2019-01-21T16:16:48.126Z,5.58
2019-01-21T16:21:12.638Z,5.26
2019-01-21T16:25:21.412Z,4.97
2019-01-21T16:29:53.674Z,4.99
2019-01-21T16:34:27.931Z,5.42
2019-01-21T16:38:33.988Z,5.86
2019-01-21T16:42:39.709Z,5.85
2019-01-21T16:46:45.414Z,5.91
2019-01-21T16:50:51.104Z,6.20
2019-01-21T16:54:56.808Z,5.69
2019-01-21T16:59:02.573Z,5.24
2019-01-21T17:03:08.271Z,5.34
2019-01-21T17:07:14.004Z,5.77
2019-01-21T17:11:19.713Z,6.11
2019-01-21T17:15:25.490Z,6.01
2019-01-21T17:19:31.203Z,6.15
2019-01-21T17:23:37.079Z,6.17
2019-01-21T17:27:43.002Z,6.27
2019-01-21T17:31:48.714Z,6.29
2019-01-21T17:35:54.421Z,6.38
2019-01-21T17:40:04.653Z,6.28
2019-01-21T17:44:10.420Z,6.19
2019-01-21T17:48:16.116Z,6.23
2019-01-21T17:52:21.854Z,6.27
2019-01-21T17:56:27.688Z,6.25
2019-01-21T18:00:34.255Z,6.17
2019-01-21T18:04:39.933Z,6.19
2019-01-21T18:08:45.762Z,6.05
2019-01-21T18:12:51.598Z,6.06
2019-01-21T18:16:57.337Z,6.15
2019-01-21T18:21:04.109Z,5.70
2019-01-21T18:25:11.526Z,5.36
2019-01-21T18:29:17.300Z,5.54
2019-01-21T18:33:23.121Z,5.58
2019-01-21T18:37:29.128Z,5.82
2019-01-21T18:41:35.015Z,6.07
2019-01-21T18:45:40.946Z,5.98
2019-01-21T18:49:46.670Z,5.82
2019-01-21T18:53:52.390Z,5.99
2019-01-21T18:57:58.203Z,5.89
2019-01-21T19:02:03.960Z,5.99
2019-01-21T19:06:10.758Z,5.85
2019-01-21T19:10:18.968Z,5.50
2019-01-21T19:14:25.712Z,5.09
2019-01-21T19:18:31.467Z,5.25
2019-01-21T19:22:37.200Z,5.66
2019-01-21T19:26:43.967Z,5.47
2019-01-21T19:30:49.729Z,5.76
2019-01-21T19:34:55.413Z,6.02
2019-01-21T19:39:01.232Z,5.99
2019-01-21T19:43:07.192Z,6.05
2019-01-21T19:47:13.079Z,6.03
2019-01-21T19:51:18.860Z,5.94
2019-01-21T19:55:35.224Z,5.44
2019-01-21T19:59:40.916Z,4.99
2019-01-21T20:03:46.680Z,5.01
2019-01-21T20:07:52.534Z,5.38
2019-01-21T20:11:58.300Z,5.36
2019-01-21T20:16:04.396Z,4.94
2019-01-21T20:20:17.682Z,4.91
2019-01-21T20:24:23.531Z,4.95
2019-01-21T20:28:29.295Z,4.61
2019-01-21T20:32:35.231Z,4.85
2019-01-21T20:36:40.994Z,5.34
2019-01-21T20:40:46.717Z,5.61
2019-01-21T20:44:53.532Z,5.77
2019-01-21T20:48:59.249Z,5.88
2019-01-21T20:53:05.587Z,5.10
2019-01-21T20:57:11.272Z,4.68
2019-01-21T21:01:17.062Z,4.79
2019-01-21T21:05:23.067Z,5.09
2019-01-21T21:09:29.853Z,4.45
2019-01-21T21:13:36.663Z,4.39
2019-01-21T21:17:42.356Z,4.15
2019-01-21T21:21:48.070Z,4.25
2019-01-21T21:26:17.968Z,4.34
2019-01-21T21:30:27.835Z,4.08
2019-01-21T21:34:33.518Z,4.46
2019-01-21T21:38:39.202Z,4.83
2019-01-21T21:42:45.272Z,4.90
2019-01-21T21:46:51.030Z,4.77
2019-01-21T21:50:56.767Z,4.77
2019-01-21T21:55:02.455Z,5.34
2019-01-21T21:59:08.133Z,5.33
2019-01-21T22:03:13.890Z,5.23
2019-01-21T22:07:19.582Z,5.02
2019-01-21T22:11:25.295Z,4.85
2019-01-21T22:15:30.989Z,4.87
2019-01-21T22:19:36.677Z,5.16
2019-01-21T22:23:42.445Z,5.37
2019-01-21T22:27:48.224Z,5.37
2019-01-21T22:31:53.993Z,5.27
2019-01-21T22:35:59.954Z,5.35
2019-01-21T22:40:11.899Z,5.19
2019-01-21T22:44:17.606Z,5.33
2019-01-21T22:48:23.293Z,5.33
2019-01-21T22:52:28.994Z,5.18
2019-01-21T22:56:34.705Z,5.25
2019-01-21T23:00:54.519Z,5.28
2019-01-21T23:05:00.275Z,5.15
2019-01-21T23:09:21.224Z,5.10
2019-01-21T23:13:26.917Z,5.04
2019-01-21T23:17:32.605Z,4.90
2019-01-21T23:21:38.560Z,5.07
2019-01-21T23:26:17.236Z,4.88
2019-01-21T23:30:24.726Z,4.96
2019-01-21T23:34:30.416Z,4.96
2019-01-21T23:38:36.146Z,4.89
2019-01-21T23:42:41.904Z,4.90
2019-01-21T23:46:47.591Z,4.39
2019-01-21T23:50:53.633Z,3.89
2019-01-21T23:54:59.336Z,3.69
2019-01-21T23:59:05.252Z,4.11
